createdAt,value
2023-05-20T00:01:26.345Z,0.80
2023-05-20T00:03:54.885Z,1.30
2023-05-20T00:06:23.323Z,0.85
2023-05-20T00:08:51.663Z,0.93
2023-05-20T00:11:19.975Z,0.80
2023-05-20T00:13:48.415Z,1.30
2023-05-20T00:16:18.074Z,0.60
2023-05-20T00:18:46.501Z,0.75
2023-05-20T00:21:14.865Z,0.70
2023-05-20T00:23:43.237Z,1.08
2023-05-20T00:26:11.855Z,0.88
2023-05-20T00:28:40.186Z,0.95
2023-05-20T00:31:08.594Z,1.02
2023-05-20T00:33:38.273Z,0.80
2023-05-20T00:36:07.065Z,1.00
2023-05-20T00:38:35.456Z,0.60
2023-05-20T00:41:03.749Z,1.05
2023-05-20T00:43:32.107Z,0.90
2023-05-20T00:46:00.470Z,0.60
2023-05-20T00:48:31.234Z,0.68
2023-05-20T00:51:02.718Z,1.50
2023-05-20T00:53:31.128Z,1.15
2023-05-20T00:55:59.510Z,1.95
2023-05-20T00:58:27.875Z,1.30
2023-05-20T01:00:57.042Z,1.13
2023-05-20T01:03:25.758Z,1.90
2023-05-20T01:05:54.368Z,2.10
2023-05-20T01:08:24.468Z,1.30
2023-05-20T01:10:55.138Z,1.73
2023-05-20T01:13:25.644Z,1.25
2023-05-20T01:15:55.912Z,1.67
2023-05-20T01:18:25.599Z,1.17
2023-05-20T01:20:55.788Z,1.40
2023-05-20T01:23:25.492Z,1.67
2023-05-20T01:25:53.877Z,1.02
2023-05-20T01:28:22.232Z,1.23
2023-05-20T01:30:52.951Z,0.80
2023-05-20T01:33:22.129Z,1.00
2023-05-20T01:35:50.844Z,1.50
2023-05-20T01:38:21.027Z,0.88
2023-05-20T01:40:51.687Z,1.52
2023-05-20T01:43:20.202Z,1.63
2023-05-20T01:45:48.573Z,1.45
2023-05-20T01:48:17.024Z,2.20
2023-05-20T01:50:45.427Z,1.77
2023-05-20T01:53:13.791Z,1.85
2023-05-20T01:55:42.167Z,1.40
2023-05-20T01:58:11.887Z,1.20
2023-05-20T02:00:40.321Z,1.67
2023-05-20T02:03:09.005Z,1.73
2023-05-20T02:05:37.934Z,1.67
2023-05-20T02:08:06.888Z,0.80
2023-05-20T02:10:35.306Z,1.05
2023-05-20T02:13:03.677Z,1.02
2023-05-20T02:15:33.773Z,1.50
2023-05-20T02:18:02.542Z,1.80
2023-05-20T02:20:31.083Z,1.58
2023-05-20T02:22:59.402Z,2.05
2023-05-20T02:25:27.840Z,1.20
2023-05-20T02:27:56.241Z,1.33
2023-05-20T02:30:24.584Z,1.17
2023-05-20T02:32:54.470Z,1.27
2023-05-20T02:35:22.927Z,1.33
2023-05-20T02:37:51.267Z,1.90
2023-05-20T02:40:19.770Z,1.05
2023-05-20T02:42:48.150Z,2.03
2023-05-20T02:45:16.505Z,1.48
2023-05-20T02:47:45.023Z,0.98
2023-05-20T02:50:14.818Z,1.50
2023-05-20T02:52:43.324Z,1.50
2023-05-20T02:55:11.832Z,0.82
2023-05-20T02:57:40.290Z,1.23
2023-05-20T03:00:11.499Z,1.33
2023-05-20T03:02:39.868Z,1.15
2023-05-20T03:05:09.047Z,1.42
2023-05-20T03:07:38.748Z,1.75
2023-05-20T03:10:08.066Z,1.50
2023-05-20T03:12:36.417Z,1.88
2023-05-20T03:15:04.832Z,0.77
2023-05-20T03:17:33.176Z,1.20
2023-05-20T03:20:01.929Z,1.20
2023-05-20T03:22:30.256Z,1.02
2023-05-20T03:25:00.671Z,0.90
2023-05-20T03:27:29.061Z,1.50
2023-05-20T03:29:57.374Z,1.42
2023-05-20T03:32:25.762Z,1.42
2023-05-20T03:34:54.572Z,1.35
2023-05-20T03:37:22.920Z,1.60
2023-05-20T03:39:51.235Z,0.85
2023-05-20T03:42:20.906Z,1.63
2023-05-20T03:44:49.278Z,1.33
2023-05-20T03:47:17.613Z,1.75
2023-05-20T03:49:46.130Z,1.58
2023-05-20T03:52:14.468Z,1.33
2023-05-20T03:54:42.812Z,1.83
2023-05-20T03:57:11.588Z,1.58
2023-05-20T03:59:41.870Z,1.60
2023-05-20T04:02:10.622Z,1.30
2023-05-20T04:04:38.992Z,1.48
2023-05-20T04:07:07.817Z,2.13
2023-05-20T04:09:36.155Z,1.65
2023-05-20T04:12:04.577Z,1.75
2023-05-20T04:14:34.327Z,1.35
2023-05-20T04:17:04.797Z,1.80
2023-05-20T04:19:34.792Z,1.80
2023-05-20T04:22:03.157Z,1.63
2023-05-20T04:24:31.544Z,1.40
2023-05-20T04:26:59.879Z,1.45
2023-05-20T04:29:28.543Z,1.33
2023-05-20T04:31:58.740Z,1.40
2023-05-20T04:34:30.900Z,1.92
2023-05-20T04:37:00.346Z,1.23
2023-05-20T04:39:28.731Z,1.52
2023-05-20T04:41:57.075Z,1.70
2023-05-20T04:44:26.491Z,1.98
2023-05-20T04:46:54.857Z,1.67
2023-05-20T04:49:25.912Z,2.28
2023-05-20T04:51:56.080Z,2.05
2023-05-20T04:54:25.180Z,1.65
2023-05-20T04:56:53.526Z,2.42
2023-05-20T04:59:21.913Z,1.95
2023-05-20T05:01:50.275Z,1.98
2023-05-20T05:04:18.803Z,2.05
2023-05-20T05:06:47.184Z,2.80
2023-05-20T05:09:16.985Z,2.25
2023-05-20T05:11:45.381Z,1.88
2023-05-20T05:14:13.711Z,2.05
2023-05-20T05:16:42.054Z,2.65
2023-05-20T05:19:10.418Z,2.35
2023-05-20T05:21:38.922Z,2.67
2023-05-20T05:24:07.492Z,2.13
2023-05-20T05:26:37.187Z,2.83
2023-05-20T05:29:05.609Z,2.60
2023-05-20T05:31:33.994Z,2.60
2023-05-20T05:34:02.361Z,2.90
2023-05-20T05:36:31.455Z,3.22
2023-05-20T05:38:59.829Z,3.00
2023-05-20T05:41:28.196Z,2.13
2023-05-20T05:43:57.879Z,2.42
2023-05-20T05:46:26.300Z,2.85
2023-05-20T05:48:54.682Z,2.40
2023-05-20T05:51:24.911Z,2.50
2023-05-20T05:53:53.329Z,2.72
2023-05-20T05:56:21.794Z,2.42
2023-05-20T05:58:50.117Z,2.25
2023-05-20T06:01:19.871Z,2.25
2023-05-20T06:03:48.316Z,2.33
2023-05-20T06:06:16.776Z,2.17
2023-05-20T06:08:45.152Z,1.95
2023-05-20T06:11:13.542Z,2.05
2023-05-20T06:13:42.326Z,2.78
2023-05-20T06:16:10.745Z,2.50
2023-05-20T06:18:40.504Z,2.92
2023-05-20T06:21:08.919Z,2.65
2023-05-20T06:23:37.299Z,1.88
2023-05-20T06:26:05.998Z,1.77
2023-05-20T06:28:34.448Z,2.53
2023-05-20T06:31:02.866Z,3.15
2023-05-20T06:33:31.194Z,2.03
2023-05-20T06:36:01.819Z,2.33
2023-05-20T06:38:30.448Z,2.28
2023-05-20T06:40:58.875Z,2.63
2023-05-20T06:43:27.263Z,2.15
2023-05-20T06:45:55.664Z,2.75
2023-05-20T06:48:24.067Z,3.05
2023-05-20T06:50:52.409Z,2.63
2023-05-20T06:53:22.480Z,3.03
2023-05-20T06:55:50.873Z,2.55
2023-05-20T06:58:19.305Z,2.08
2023-05-20T07:00:48.702Z,2.22
2023-05-20T07:03:17.096Z,3.03
2023-05-20T07:05:45.459Z,2.47
2023-05-20T07:08:13.862Z,3.17
2023-05-20T07:10:43.607Z,2.70
2023-05-20T07:13:11.944Z,3.83
2023-05-20T07:15:40.680Z,2.83
2023-05-20T07:18:09.012Z,2.70
2023-05-20T07:20:37.357Z,2.58
2023-05-20T07:23:05.959Z,2.92
2023-05-20T07:25:34.469Z,2.25
2023-05-20T07:28:04.481Z,3.08
2023-05-20T07:30:32.890Z,2.70
2023-05-20T07:33:01.228Z,2.47
2023-05-20T07:35:29.706Z,2.45
2023-05-20T07:37:58.077Z,2.97
2023-05-20T07:40:26.483Z,2.85
2023-05-20T07:42:54.883Z,2.35
2023-05-20T07:45:24.638Z,2.28
2023-05-20T07:47:53.032Z,2.90
2023-05-20T07:50:21.519Z,2.22
2023-05-20T07:52:56.554Z,1.98
2023-05-20T07:55:25.360Z,2.00
2023-05-20T07:57:53.789Z,2.22
2023-05-20T08:00:22.379Z,2.05
2023-05-20T08:02:52.318Z,2.08
2023-05-20T08:05:22.709Z,1.63
2023-05-20T08:07:51.095Z,2.25
2023-05-20T08:10:19.514Z,1.67
2023-05-20T08:12:48.528Z,1.83
2023-05-20T08:15:16.946Z,1.60
2023-05-20T08:17:45.432Z,1.80
2023-05-20T08:20:15.620Z,1.92
2023-05-20T08:22:44.077Z,2.25
2023-05-20T08:25:12.528Z,2.40
2023-05-20T08:27:42.433Z,1.63
2023-05-20T08:30:11.437Z,1.75
2023-05-20T08:32:39.839Z,1.88
2023-05-20T08:35:09.336Z,2.30
2023-05-20T08:37:39.122Z,1.63
2023-05-20T08:40:09.849Z,2.17
2023-05-20T08:42:38.179Z,1.95
2023-05-20T08:45:07.030Z,1.80
2023-05-20T08:47:35.581Z,1.20
2023-05-20T08:50:04.093Z,1.50
2023-05-20T08:52:33.633Z,1.23
2023-05-20T08:55:04.611Z,2.00
2023-05-20T08:57:34.022Z,1.88
2023-05-20T09:00:05.939Z,1.08
2023-05-20T09:02:34.362Z,1.52
2023-05-20T09:05:02.972Z,1.33
2023-05-20T09:07:31.330Z,1.52
2023-05-20T09:09:59.901Z,1.40
2023-05-20T09:12:29.595Z,1.23
2023-05-20T09:14:57.946Z,1.55
2023-05-20T09:17:26.381Z,1.20
2023-05-20T09:19:54.958Z,1.45
2023-05-20T09:22:26.230Z,0.75
2023-05-20T09:24:54.737Z,1.10
2023-05-20T09:27:24.110Z,1.70
2023-05-20T09:29:53.850Z,1.25
2023-05-20T09:32:24.378Z,1.10
2023-05-20T09:34:52.736Z,1.02
2023-05-20T09:37:23.257Z,1.38
2023-05-20T09:39:59.566Z,1.13
2023-05-20T09:42:29.083Z,1.50
2023-05-20T09:44:59.885Z,1.20
2023-05-20T09:47:28.940Z,1.02
2023-05-20T09:49:58.379Z,1.75
2023-05-20T09:52:28.901Z,1.20
2023-05-20T09:54:57.598Z,1.00
2023-05-20T09:57:26.280Z,1.40
2023-05-20T09:59:54.647Z,1.50
2023-05-20T10:02:24.509Z,1.30
2023-05-20T10:04:54.475Z,0.88
2023-05-20T10:07:41.835Z,0.88
2023-05-20T10:10:16.097Z,1.13
2023-05-20T10:12:47.697Z,2.05
2023-05-20T10:15:19.242Z,1.38
2023-05-20T10:17:53.624Z,1.40
2023-05-20T10:20:22.103Z,1.33
2023-05-20T10:22:58.338Z,1.52
2023-05-20T10:25:27.696Z,1.00
2023-05-20T10:28:07.958Z,1.40
2023-05-20T10:30:36.856Z,1.30
2023-05-20T10:33:08.140Z,1.27
2023-05-20T10:35:36.593Z,1.05
2023-05-20T10:38:11.938Z,1.80
2023-05-20T10:40:41.939Z,1.17
2023-05-20T10:43:11.458Z,1.52
2023-05-20T10:45:50.238Z,1.23
2023-05-20T10:48:25.369Z,1.13
2023-05-20T10:50:56.543Z,0.88
2023-05-20T10:53:33.304Z,0.93
2023-05-20T10:56:02.730Z,0.75
2023-05-20T10:58:38.399Z,0.98
2023-05-20T11:01:06.857Z,1.05
2023-05-20T11:03:37.274Z,1.00
2023-05-20T11:06:12.677Z,1.15
2023-05-20T11:08:41.245Z,1.13
2023-05-20T11:11:09.757Z,1.05
2023-05-20T11:13:38.190Z,1.02
2023-05-20T11:16:07.072Z,1.05
2023-05-20T11:18:36.916Z,1.00
2023-05-20T11:21:05.698Z,0.95
2023-05-20T11:23:34.043Z,0.95
2023-05-20T11:26:03.526Z,1.23
2023-05-20T11:28:33.270Z,1.45
2023-05-20T11:31:01.922Z,1.25
2023-05-20T11:33:31.669Z,0.90
2023-05-20T11:36:01.857Z,1.20
2023-05-20T11:38:31.865Z,0.98
2023-05-20T11:41:00.451Z,1.08
2023-05-20T11:43:29.210Z,1.05
2023-05-20T11:45:59.791Z,1.40
2023-05-20T11:48:28.471Z,1.23
2023-05-20T11:50:58.415Z,1.30
2023-05-20T11:53:29.248Z,0.98
2023-05-20T11:55:58.498Z,1.20
2023-05-20T11:58:27.922Z,1.10
2023-05-20T12:01:05.206Z,1.42
2023-05-20T12:03:42.327Z,1.25
2023-05-20T12:06:14.254Z,1.60
2023-05-20T12:08:43.981Z,1.77
2023-05-20T12:11:12.368Z,1.25
2023-05-20T12:13:41.069Z,1.38
2023-05-20T12:16:09.600Z,1.73
2023-05-20T12:18:37.981Z,0.85
2023-05-20T12:21:06.415Z,1.05
2023-05-20T12:23:34.779Z,1.00
2023-05-20T12:26:05.660Z,1.58
2023-05-20T12:28:34.306Z,1.80
2023-05-20T12:31:02.814Z,1.83
2023-05-20T12:33:31.212Z,1.83
2023-05-20T12:35:59.635Z,1.80
2023-05-20T12:38:28.132Z,1.50
2023-05-20T12:40:56.673Z,2.30
2023-05-20T12:43:26.390Z,1.98
2023-05-20T12:45:54.752Z,1.40
2023-05-20T12:48:23.093Z,1.60
2023-05-20T12:50:51.472Z,1.50
2023-05-20T12:53:19.816Z,1.63
2023-05-20T12:55:48.153Z,2.00
2023-05-20T12:58:16.503Z,1.98
2023-05-20T13:00:46.228Z,2.03
2023-05-20T13:03:14.919Z,0.98
2023-05-20T13:05:43.892Z,1.70
2023-05-20T13:08:12.943Z,1.40
2023-05-20T13:10:41.365Z,2.20
2023-05-20T13:13:09.754Z,1.38
2023-05-20T13:15:38.340Z,2.05
2023-05-20T13:18:08.455Z,1.27
2023-05-20T13:20:36.973Z,2.00
2023-05-20T13:23:05.530Z,1.73
2023-05-20T13:25:33.896Z,1.85
2023-05-20T13:28:02.375Z,1.85
2023-05-20T13:30:30.736Z,1.38
2023-05-20T13:32:59.168Z,1.50
2023-05-20T13:35:28.941Z,2.25
2023-05-20T13:37:57.304Z,1.80
2023-05-20T13:40:25.728Z,1.27
2023-05-20T13:42:54.183Z,1.70
2023-05-20T13:45:23.268Z,1.83
2023-05-20T13:47:51.679Z,1.77
2023-05-20T13:50:20.175Z,1.70
2023-05-20T13:52:50.485Z,2.50
2023-05-20T13:55:18.896Z,1.67
2023-05-20T13:57:47.513Z,1.63
2023-05-20T14:00:16.401Z,2.33
2023-05-20T14:02:44.906Z,2.10
2023-05-20T14:05:13.396Z,1.88
2023-05-20T14:07:41.757Z,1.80
2023-05-20T14:10:11.781Z,2.45
2023-05-20T14:12:40.173Z,2.15
2023-05-20T14:15:09.239Z,1.77
2023-05-20T14:17:37.709Z,1.70
2023-05-20T14:20:06.980Z,2.03
2023-05-20T14:22:35.451Z,2.47
2023-05-20T14:25:03.820Z,1.95
2023-05-20T14:27:33.510Z,1.67
2023-05-20T14:30:01.978Z,2.40
2023-05-20T14:32:30.463Z,1.90
2023-05-20T14:35:00.046Z,2.08
2023-05-20T14:37:28.446Z,2.10
2023-05-20T14:39:56.850Z,2.47
2023-05-20T14:42:25.335Z,1.88
2023-05-20T14:44:55.070Z,2.03
2023-05-20T14:47:23.509Z,2.30
2023-05-20T14:49:52.071Z,2.28
2023-05-20T14:52:20.485Z,2.25
2023-05-20T14:54:48.996Z,2.33
2023-05-20T14:57:17.519Z,2.70
2023-05-20T14:59:46.171Z,1.88
2023-05-20T15:02:16.230Z,2.20
2023-05-20T15:04:46.729Z,2.25
2023-05-20T15:07:15.340Z,2.00
2023-05-20T15:09:43.886Z,2.55
2023-05-20T15:12:12.800Z,2.17
2023-05-20T15:14:41.178Z,2.25
2023-05-20T15:17:09.781Z,2.05
2023-05-20T15:19:41.808Z,2.22
2023-05-20T15:22:10.601Z,2.40
2023-05-20T15:24:38.975Z,2.38
2023-05-20T15:27:07.833Z,2.40
2023-05-20T15:29:37.480Z,2.38
2023-05-20T15:32:07.582Z,1.85
2023-05-20T15:34:36.157Z,2.75
2023-05-20T15:37:06.081Z,1.77
2023-05-20T15:39:34.475Z,2.70
2023-05-20T15:42:03.375Z,2.33
2023-05-20T15:44:31.786Z,2.10
2023-05-20T15:47:00.503Z,2.17
2023-05-20T15:49:28.906Z,2.20
2023-05-20T15:52:02.847Z,2.28
2023-05-20T15:57:02.803Z,2.00
2023-05-20T15:59:31.555Z,2.08
2023-05-20T16:02:00.241Z,1.77
2023-05-20T16:04:28.725Z,2.33
2023-05-20T16:06:57.248Z,1.92
2023-05-20T16:09:25.660Z,2.05
2023-05-20T16:11:54.095Z,2.15
2023-05-20T16:14:23.815Z,1.85
2023-05-20T16:16:52.249Z,1.85
2023-05-20T16:19:20.735Z,2.05
2023-05-20T16:21:49.220Z,2.13
2023-05-20T16:24:18.942Z,1.75
2023-05-20T16:26:47.302Z,1.80
2023-05-20T16:29:16.590Z,1.98
2023-05-20T16:31:47.111Z,2.15
2023-05-20T16:34:16.957Z,2.10
2023-05-20T16:36:46.388Z,2.00
2023-05-20T16:39:14.897Z,1.83
2023-05-20T16:41:43.531Z,1.88
2023-05-20T16:44:12.166Z,1.77
2023-05-20T16:46:40.702Z,1.75
2023-05-20T16:49:10.410Z,2.10
2023-05-20T16:51:38.873Z,2.03
2023-05-20T16:54:08.239Z,2.03
2023-05-20T16:56:37.150Z,2.53
2023-05-20T16:59:05.572Z,2.28
2023-05-20T17:01:34.128Z,1.90
2023-05-20T17:04:02.699Z,2.25
2023-05-20T17:06:34.379Z,2.17
2023-05-20T17:09:04.653Z,2.20
2023-05-20T17:11:33.098Z,1.90
2023-05-20T17:14:01.603Z,1.92
2023-05-20T17:16:29.954Z,1.83
2023-05-20T17:18:58.794Z,1.95
2023-05-20T17:21:27.206Z,2.30
2023-05-20T17:23:56.972Z,2.08
2023-05-20T17:26:25.880Z,2.10
2023-05-20T17:28:54.318Z,2.63
2023-05-20T17:31:22.698Z,2.20
2023-05-20T17:33:51.263Z,2.13
2023-05-20T17:36:22.023Z,1.83
2023-05-20T17:38:50.504Z,2.17
2023-05-20T17:41:20.275Z,1.88
2023-05-20T17:43:48.698Z,1.75
2023-05-20T17:46:17.276Z,1.85
2023-05-20T17:48:46.018Z,2.50
2023-05-20T17:51:14.350Z,2.65
2023-05-20T17:53:42.669Z,1.90
2023-05-20T17:56:11.073Z,2.35
2023-05-20T17:58:40.954Z,2.85
2023-05-20T18:01:10.463Z,1.92
2023-05-20T18:03:39.955Z,2.33
2023-05-20T18:06:08.828Z,2.20
2023-05-20T18:08:37.314Z,2.00
2023-05-20T18:11:05.976Z,1.63
2023-05-20T18:13:34.393Z,2.22
2023-05-20T18:16:04.182Z,2.13
2023-05-20T18:18:32.623Z,2.33
2023-05-20T18:21:00.989Z,2.15
2023-05-20T18:23:29.389Z,2.20
2023-05-20T18:25:57.985Z,2.65
2023-05-20T18:28:26.385Z,1.63
2023-05-20T18:30:55.691Z,2.45
2023-05-20T18:33:25.521Z,2.33
2023-05-20T18:35:54.155Z,2.85
2023-05-20T18:38:23.293Z,1.90
2023-05-20T18:40:51.667Z,2.10
2023-05-20T18:43:19.993Z,2.22
2023-05-20T18:45:48.464Z,2.03
2023-05-20T18:48:25.660Z,2.60
2023-05-20T18:50:56.677Z,2.08
2023-05-20T18:53:25.077Z,2.28
2023-05-20T18:55:53.497Z,2.28
2023-05-20T18:58:22.056Z,1.83
2023-05-20T19:00:50.791Z,2.03
2023-05-20T19:03:19.252Z,2.03
2023-05-20T19:05:47.759Z,2.00
2023-05-20T19:08:17.538Z,2.28
2023-05-20T19:10:46.066Z,2.30
2023-05-20T19:13:14.482Z,1.73
2023-05-20T19:15:42.883Z,2.92
2023-05-20T19:18:11.376Z,1.95
2023-05-20T19:20:39.851Z,2.00
2023-05-20T19:23:08.221Z,2.55
2023-05-20T19:25:37.917Z,1.92
2023-05-20T19:28:06.531Z,1.95
2023-05-20T19:30:35.088Z,2.30
2023-05-20T19:33:04.996Z,2.33
2023-05-20T19:35:33.667Z,2.08
2023-05-20T19:38:04.873Z,2.22
2023-05-20T19:40:33.362Z,2.38
2023-05-20T19:43:03.134Z,1.92
2023-05-20T19:45:32.293Z,2.30
2023-05-20T19:48:00.800Z,2.63
2023-05-20T19:50:29.260Z,1.60
2023-05-20T19:52:57.669Z,2.20
2023-05-20T19:55:26.111Z,1.88
2023-05-20T19:57:54.496Z,2.08
2023-05-20T20:00:24.732Z,2.25
2023-05-20T20:02:53.212Z,2.25
2023-05-20T20:05:23.750Z,2.15
2023-05-20T20:07:52.380Z,2.75
2023-05-20T20:10:20.880Z,2.72
2023-05-20T20:12:49.822Z,2.65
2023-05-20T20:15:20.480Z,2.53
2023-05-20T20:17:52.358Z,2.22
2023-05-20T20:20:21.037Z,2.25
2023-05-20T20:22:49.448Z,2.47
2023-05-20T20:25:18.636Z,2.10
2023-05-20T20:27:48.707Z,2.20
2023-05-20T20:30:17.373Z,2.15
2023-05-20T20:32:48.214Z,2.33
2023-05-20T20:35:18.166Z,2.13
2023-05-20T20:37:46.514Z,1.90
2023-05-20T20:40:14.944Z,2.05
2023-05-20T20:42:45.304Z,2.10
2023-05-20T20:45:15.093Z,1.88
2023-05-20T20:47:44.912Z,2.17
2023-05-20T20:50:13.401Z,2.70
2023-05-20T20:52:43.412Z,2.08
2023-05-20T20:55:11.822Z,2.33
2023-05-20T20:57:41.949Z,2.35
2023-05-20T21:00:16.571Z,2.53
2023-05-20T21:02:45.200Z,2.38
2023-05-20T21:05:14.469Z,2.85
2023-05-20T21:07:46.132Z,1.90
2023-05-20T21:10:14.596Z,2.88
2023-05-20T21:12:43.094Z,2.42
2023-05-20T21:15:14.886Z,1.98
2023-05-20T21:17:43.420Z,1.92
2023-05-20T21:20:12.540Z,1.70
2023-05-20T21:22:43.394Z,3.75
2023-05-20T21:25:13.779Z,2.28
2023-05-20T21:27:42.379Z,1.40
2023-05-20T21:30:11.247Z,2.13
2023-05-20T21:32:39.896Z,2.30
2023-05-20T21:35:08.941Z,2.03
2023-05-20T21:37:37.322Z,2.17
2023-05-20T21:40:06.075Z,2.03
2023-05-20T21:42:35.814Z,2.17
2023-05-20T21:45:04.344Z,2.08
2023-05-20T21:47:32.815Z,1.90
2023-05-20T21:50:01.317Z,2.80
2023-05-20T21:52:29.637Z,2.35
2023-05-20T21:54:58.088Z,2.45
2023-05-20T21:57:26.518Z,2.13
2023-05-20T21:59:56.253Z,2.17
2023-05-20T22:02:24.752Z,2.22
2023-05-20T22:04:53.244Z,2.53
2023-05-20T22:07:21.675Z,1.90
2023-05-20T22:09:50.056Z,2.08
2023-05-20T22:12:20.497Z,2.08
2023-05-20T22:14:48.846Z,1.70
2023-05-20T22:17:18.828Z,2.08
2023-05-20T22:19:47.763Z,1.90
2023-05-20T22:22:16.104Z,2.17
2023-05-20T22:24:44.664Z,2.15
2023-05-20T22:27:13.058Z,2.20
2023-05-20T22:29:41.429Z,2.15
2023-05-20T22:32:09.849Z,2.28
2023-05-20T22:34:39.603Z,1.70
2023-05-20T22:37:08.109Z,2.80
2023-05-20T22:39:36.552Z,1.90
2023-05-20T22:42:04.958Z,2.00
2023-05-20T22:44:33.445Z,2.20
2023-05-20T22:47:01.774Z,2.15
2023-05-20T22:49:30.638Z,2.10
2023-05-20T22:52:00.426Z,1.98
2023-05-20T22:54:28.849Z,1.90
2023-05-20T22:56:59.257Z,2.17
2023-05-20T22:59:30.951Z,1.75
2023-05-20T23:01:59.332Z,2.03
2023-05-20T23:04:27.770Z,1.50
2023-05-20T23:06:59.158Z,1.85
2023-05-20T23:09:29.143Z,1.63
2023-05-20T23:11:57.469Z,1.83
2023-05-20T23:14:25.976Z,1.45
2023-05-20T23:16:54.536Z,1.73
2023-05-20T23:19:22.931Z,2.00
2023-05-20T23:21:51.306Z,1.83
2023-05-20T23:24:19.642Z,1.60
2023-05-20T23:26:49.419Z,1.90
2023-05-20T23:29:17.774Z,1.73
2023-05-20T23:31:46.868Z,1.80
2023-05-20T23:34:16.080Z,2.13
2023-05-20T23:36:45.723Z,1.40
2023-05-20T23:39:15.603Z,1.67
2023-05-20T23:41:45.155Z,2.22
2023-05-20T23:44:14.910Z,2.08
2023-05-20T23:46:44.984Z,1.80
2023-05-20T23:49:13.473Z,1.58
2023-05-20T23:51:41.824Z,2.03
2023-05-20T23:54:10.191Z,1.70
2023-05-20T23:56:38.620Z,1.67
2023-05-20T23:59:07.289Z,1.70
